Forside
METAR-TAF:

METAR-TAF

Lufthavne :

Irkutsk, Rusland

Breddekreds: 52-16N, længdekreds: 104-19E, højde: 513 m

Aktuelle vejr

Denne rapport blev lavet for 18 minutter siden, kl. 19:35 UTC
Vind 6 kt fra syd
Temperatur 17°C
Fugtighed 100%
Tryk 1001 hPa
Sigt: 9000 m
Brudte skyer i en højde af 100 ft, Cumulonimbus.

METAR: UIII 221935Z 18003MPS 9000 BKN001CB 17/17 Q1001 R12/290150 NOSIG RMK QBB050 MT OBSC QFE708/0945

Tid: 03:53 (19:53 UTC)

Vejrudsigter

Denne rapport blev lavet for 2 timer og 53 minutter siden, kl. 17:00 UTC
Foreløbig gælder fra 22 på 18 UTC til 23 på 18 UTC
Vind 6 kt fra vestnordvest
Sigt: 2000 m
Brudte skyer i en højde af 400 ft
Brudte skyer i en højde af 900 ft, Cumulonimbus.
let regnbyger, dis
Midlertidig
fra 22 på 18 UTC til 23 på 18 UTC
Sigt: 0500 m
Brudte skyer i en højde af 100 ft
Brudte skyer i en højde af 700 ft, Cumulonimbus.
tordenbyger, regn, tåge,

TAF: UIII 221700Z 2218/2318 29003MPS 2000 -SHRA BR BKN004 BKN009CB TEMPO 2218/2318 0500 TSRA FG BKN001 BKN007CB

Vejrobservationer og prognoser fra mere end 4000 lufthavne (METAR og TAF).

De gule og røde prikker repræsenterer de meteorologiske stationer.

Flyt musen over at se navnet på stationen.

Så klik over at se vejr observationer og prognoser.

At skifte det kort: Klik på de grønne knapper med et sort kors for at zoome ind; på den grønne knap med en bindestreg for at zoome ud; eller på de grønne pile for tilstødende kort.


METAR-TAF: